Time;durP1;ratioP1;P1;durP2;ratioP2;P2;SDS_P1;SDS_P2;PMS_P1;PMS_P2;Temp;Humidity;BMP_temperature;BMP_pressure;BME280_temperature;BME280_humidity;BME280_pressure;Samples;Min_cycle;Max_cycle;Signal;HPM_P1;HPM_P2
2022/04/12 00:00:23;;;;;;;0.50;0.50;;;;;;;7.58;59.23;96635.19;29395;248;63004;-59
2022/04/12 00:00:54;;;;;;;0.60;0.60;;;;;;;7.58;59.06;96633.31;29395;226;63009;-59
2022/04/12 00:01:28;;;;;;;0.50;0.50;;;;;;;7.59;59.26;96634.13;29395;245;63005;-58
2022/04/12 00:01:59;;;;;;;0.50;0.50;;;;;;;7.59;59.25;96639.53;29395;255;63009;-59
2022/04/12 00:02:30;;;;;;;0.50;0.50;;;;;;;7.59;59.17;96628.72;29394;270;64009;-59
2022/04/12 00:03:01;;;;;;;0.50;0.50;;;;;;;7.59;59.27;96634.13;29395;202;63009;-63
2022/04/12 00:03:33;;;;;;;0.52;0.52;;;;;;;7.57;59.31;96636.28;29395;199;63005;-59
2022/04/12 00:04:04;;;;;;;0.60;0.60;;;;;;;7.58;59.00;96632.50;29395;227;63009;-63
2022/04/12 00:04:35;;;;;;;0.50;0.50;;;;;;;7.57;59.10;96634.41;29395;255;63005;-63
2022/04/12 00:05:07;;;;;;;0.60;0.60;;;;;;;7.57;59.33;96630.88;29395;266;63009;-59
2022/04/12 00:05:40;;;;;;;0.50;0.50;;;;;;;7.57;59.35;96630.88;29395;246;63004;-57
2022/04/12 00:06:11;;;;;;;0.60;0.60;;;;;;;7.57;59.26;96630.88;29395;239;63009;-64
2022/04/12 00:06:43;;;;;;;0.60;0.60;;;;;;;7.59;59.13;96634.13;29394;196;64009;-63
2022/04/12 00:07:15;;;;;;;0.60;0.60;;;;;;;7.58;59.17;96632.50;29395;206;63009;-59
2022/04/12 00:07:47;;;;;;;0.50;0.50;;;;;;;7.59;58.97;96629.53;29394;264;64008;-59
2022/04/12 00:08:18;;;;;;;0.57;0.57;;;;;;;7.59;59.07;96628.72;29395;207;63009;-59
2022/04/12 00:08:49;;;;;;;1.02;1.02;;;;;;;7.61;59.11;96631.94;29395;271;63005;-59
2022/04/12 00:09:20;;;;;;;0.70;0.70;;;;;;;7.59;59.06;96623.31;29395;294;63009;-60
2022/04/12 00:09:51;;;;;;;0.50;0.50;;;;;;;7.59;59.32;96624.13;29395;254;63007;-59
2022/04/12 00:10:22;;;;;;;0.50;0.50;;;;;;;7.59;59.30;96624.13;29395;293;63009;-59
2022/04/12 00:10:54;;;;;;;0.50;0.50;;;;;;;7.59;59.04;96629.53;29395;213;63005;-59
2022/04/12 00:11:26;;;;;;;0.50;0.50;;;;;;;7.60;59.08;96624.94;29395;197;63009;-63
2022/04/12 00:12:00;;;;;;;0.50;0.50;;;;;;;7.59;58.98;96623.31;29395;252;63005;-62
2022/04/12 00:12:32;;;;;;;0.50;0.50;;;;;;;7.61;59.00;96621.16;29394;233;64013;-62
2022/04/12 00:13:04;;;;;;;0.50;0.50;;;;;;;7.61;59.06;96626.53;29395;220;63004;-64
2022/04/12 00:13:38;;;;;;;0.50;0.50;;;;;;;7.63;58.75;96618.94;29395;262;63009;-61
2022/04/12 00:14:10;;;;;;;0.50;0.50;;;;;;;7.63;58.77;96618.94;29395;264;63004;-59
2022/04/12 00:14:43;;;;;;;0.50;0.50;;;;;;;7.61;58.83;96626.53;29395;225;63009;-60
2022/04/12 00:15:15;;;;;;;0.50;0.50;;;;;;;7.58;58.90;96621.69;29395;253;63004;-59
2022/04/12 00:15:51;;;;;;;0.50;0.50;;;;;;;7.55;58.81;96617.66;29395;203;63013;-59
2022/04/12 00:16:22;;;;;;;0.50;0.50;;;;;;;7.52;59.62;96620.94;29395;247;63001;-58
2022/04/12 00:19:02;;;;;;;0.50;0.50;;;;;;;7.50;59.61;96625.00;29395;238;63009;-58
2022/04/12 00:19:24;;;;;;;0.60;0.60;;;;;;;7.41;59.73;96624.75;29395;244;63005;-64
2022/04/12 00:19:56;;;;;;;0.50;0.50;;;;;;;7.39;60.03;96625.03;29395;207;63009;-59
2022/04/12 00:20:28;;;;;;;0.50;0.50;;;;;;;7.36;60.50;96631.00;29395;260;63009;-59
2022/04/12 00:21:00;;;;;;;0.60;0.60;;;;;;;7.33;60.53;96631.53;29395;233;63009;-59
2022/04/12 00:21:34;;;;;;;0.50;0.50;;;;;;;7.30;60.17;96632.09;29395;210;63004;-59
2022/04/12 00:22:05;;;;;;;0.60;0.60;;;;;;;7.28;60.38;96634.25;29394;248;64013;-59
2022/04/12 00:22:38;;;;;;;0.60;0.60;;;;;;;7.27;60.30;96632.69;29395;265;63004;-64
2022/04/12 00:23:14;;;;;;;0.50;0.50;;;;;;;7.25;61.03;96634.84;29395;223;63008;-59
2022/04/12 00:23:46;;;;;;;0.52;0.52;;;;;;;7.22;60.90;96630.00;29395;202;63005;-59
2022/04/12 00:24:17;;;;;;;0.60;0.60;;;;;;;7.21;60.67;96633.78;29395;212;63009;-60
2022/04/12 00:24:49;;;;;;;5.10;4.80;;;;;;;7.20;61.12;96634.88;29395;267;63005;-59
2022/04/12 00:25:22;;;;;;;0.50;0.50;;;;;;;7.18;61.31;96638.94;29395;196;63018;-63
2022/04/12 00:25:53;;;;;;;0.50;0.50;;;;;;;7.16;61.67;96633.81;29394;224;64009;-59
2022/04/12 00:26:24;;;;;;;0.50;0.50;;;;;;;7.14;61.45;96633.28;29395;209;63009;-60
2022/04/12 00:26:56;;;;;;;0.60;0.60;;;;;;;7.12;61.49;96629.25;29395;197;63005;-60
2022/04/12 00:27:29;;;;;;;0.50;0.50;;;;;;;7.10;61.60;96632.22;29395;217;63009;-63
2022/04/12 00:28:01;;;;;;;0.50;0.50;;;;;;;7.09;61.88;96636.00;29394;288;64009;-65
2022/04/12 00:28:32;;;;;;;0.50;0.50;;;;;;;7.08;61.63;96637.06;29395;202;63009;-62
2022/04/12 00:29:04;;;;;;;0.50;0.50;;;;;;;7.15;60.88;96628.69;29395;234;63004;-63
2022/04/12 00:29:45;;;;;;;0.60;0.60;;;;;;;7.17;60.69;96630.03;29395;222;63009;-59
2022/04/12 00:30:20;;;;;;;0.50;0.50;;;;;;;7.17;60.92;96624.63;29395;236;63004;-64
2022/04/12 00:30:51;;;;;;;0.50;0.50;;;;;;;7.19;60.71;96625.16;29395;268;63008;-64
2022/04/12 00:31:22;;;;;;;0.50;0.50;;;;;;;7.20;60.65;96626.78;29395;203;63005;-64
2022/04/12 00:31:53;;;;;;;0.50;0.50;;;;;;;7.20;60.48;96625.97;29395;197;63009;-64
2022/04/12 00:32:24;;;;;;;2.25;2.20;;;;;;;7.18;60.48;96626.25;29395;234;63005;-64
2022/04/12 00:32:56;;;;;;;0.60;0.60;;;;;;;7.18;60.61;96618.16;29394;235;64005;-62
2022/04/12 00:33:29;;;;;;;0.50;0.50;;;;;;;7.19;60.75;96625.16;29395;256;63005;-64
2022/04/12 00:34:05;;;;;;;0.50;0.50;;;;;;;7.20;60.57;96621.38;29395;196;63009;-64
2022/04/12 00:34:37;;;;;;;0.50;0.50;;;;;;;7.21;60.54;96628.38;29395;216;63004;-64
2022/04/12 00:35:09;;;;;;;0.50;0.50;;;;;;;7.24;60.31;96622.44;29395;223;63009;-63
2022/04/12 00:35:41;;;;;;;0.55;0.55;;;;;;;7.26;60.34;96620.28;29395;226;63004;-64
2022/04/12 00:36:12;;;;;;;0.50;0.50;;;;;;;7.28;60.19;96622.66;29395;214;63009;-64
2022/04/12 00:36:44;;;;;;;0.60;0.60;;;;;;;7.28;60.12;96623.47;29395;233;63004;-59
2022/04/12 00:37:16;;;;;;;0.50;0.50;;;;;;;7.27;59.95;96621.88;29395;264;63008;-62
2022/04/12 00:37:50;;;;;;;0.77;0.77;;;;;;;7.28;60.08;96620.78;29394;226;64008;-64
2022/04/12 00:38:23;;;;;;;0.50;0.50;;;;;;;7.29;59.90;96618.88;29394;237;64013;-63
2022/04/12 00:38:55;;;;;;;0.50;0.50;;;;;;;7.28;60.07;96615.38;29395;203;63005;-63
2022/04/12 00:39:26;;;;;;;0.50;0.50;;;;;;;7.30;60.21;96621.31;29395;214;63009;-59
2022/04/12 00:39:57;;;;;;;0.50;0.50;;;;;;;7.31;60.01;96617.53;29395;247;63000;-64
2022/04/12 00:40:30;;;;;;;0.50;0.50;;;;;;;7.31;59.78;96611.31;29395;211;63009;-65
2022/04/12 00:41:04;;;;;;;0.50;0.50;;;;;;;7.32;59.88;96618.31;29394;227;64009;-64
2022/04/12 00:41:35;;;;;;;0.50;0.50;;;;;;;7.31;59.88;96622.91;29395;289;63014;-65
2022/04/12 00:42:08;;;;;;;0.50;0.50;;;;;;;7.30;59.92;96621.31;29395;206;63000;-64
2022/04/12 00:42:40;;;;;;;0.50;0.50;;;;;;;7.29;59.83;96619.69;29395;305;63015;-62
2022/04/12 00:43:11;;;;;;;0.60;0.60;;;;;;;7.30;60.02;96625.91;29394;206;64009;-65
2022/04/12 00:43:43;;;;;;;0.50;0.50;;;;;;;7.30;59.80;96625.91;29395;203;63009;-63
2022/04/12 00:44:15;;;;;;;0.50;0.50;;;;;;;7.29;59.94;96619.69;29395;196;63004;-64
2022/04/12 00:44:47;;;;;;;0.50;0.50;;;;;;;7.29;59.92;96619.69;29395;236;63008;-64
2022/04/12 00:45:18;;;;;;;0.55;0.55;;;;;;;7.29;59.76;96625.09;29395;220;63005;-65
2022/04/12 00:45:54;;;;;;;0.50;0.50;;;;;;;7.28;59.83;96628.88;29395;199;63009;-63
2022/04/12 00:46:26;;;;;;;0.57;0.57;;;;;;;7.28;59.88;96619.97;29395;210;63005;-59
2022/04/12 00:46:57;;;;;;;0.60;0.60;;;;;;;7.28;59.84;96628.88;29395;252;63009;-64
2022/04/12 00:47:28;;;;;;;0.50;0.50;;;;;;;7.26;60.12;96625.66;29395;203;63005;-65
2022/04/12 00:48:00;;;;;;;0.50;0.50;;;;;;;7.25;59.70;96629.44;29395;251;63009;-66
2022/04/12 00:48:32;;;;;;;0.50;0.50;;;;;;;7.25;59.98;96628.66;29394;208;64009;-63
2022/04/12 00:49:03;;;;;;;0.50;0.50;;;;;;;7.25;60.17;96634.03;29395;216;63009;-63
2022/04/12 00:49:35;;;;;;;0.60;0.60;;;;;;;7.24;60.52;96630.53;29395;233;63004;-59
2022/04/12 00:50:09;;;;;;;0.50;0.50;;;;;;;7.21;60.56;96633.78;29395;242;63017;-65
2022/04/12 00:50:41;;;;;;;0.60;0.60;;;;;;;7.21;60.34;96636.50;29395;237;63004;-65
2022/04/12 00:51:13;;;;;;;0.50;0.50;;;;;;;7.22;60.19;96631.91;29394;248;64013;-64
2022/04/12 00:51:46;;;;;;;0.60;0.60;;;;;;;7.21;60.18;96636.50;29395;206;63004;-65
2022/04/12 00:52:18;;;;;;;0.50;0.50;;;;;;;7.20;60.12;96629.47;29395;252;63008;-63
2022/04/12 00:52:53;;;;;;;2.62;2.53;;;;;;;7.20;60.39;96628.66;29395;259;63005;-62
2022/04/12 00:53:28;;;;;;;0.50;0.50;;;;;;;7.18;60.15;96623.53;29395;263;63009;-65
2022/04/12 00:54:01;;;;;;;0.50;0.50;;;;;;;7.18;60.94;96628.94;29394;210;64009;-62
2022/04/12 00:54:34;;;;;;;0.50;0.50;;;;;;;7.16;60.47;96631.09;29395;232;63009;-64
2022/04/12 00:55:07;;;;;;;0.50;0.50;;;;;;;7.16;60.60;96627.59;29395;299;63005;-64
2022/04/12 00:55:38;;;;;;;0.50;0.50;;;;;;;7.17;60.57;96627.31;29395;250;63009;-58
2022/04/12 00:56:10;;;;;;;0.50;0.50;;;;;;;7.17;60.49;96627.31;29395;222;63005;-63
2022/04/12 00:56:41;;;;;;;0.50;0.50;;;;;;;7.19;60.53;96621.66;29395;235;63009;-65
2022/04/12 00:57:12;;;;;;;0.50;0.50;;;;;;;7.19;60.49;96625.16;29395;202;63004;-66
2022/04/12 00:57:44;;;;;;;0.50;0.50;;;;;;;7.19;60.21;96622.47;29395;209;63009;-66
2022/04/12 00:58:15;;;;;;;0.50;0.50;;;;;;;7.19;60.35;96616.25;29394;218;64009;-64
2022/04/12 00:58:49;;;;;;;0.50;0.50;;;;;;;7.19;60.42;96624.34;29395;198;63009;-66
2022/04/12 00:59:21;;;;;;;0.60;0.60;;;;;;;7.19;60.49;96627.84;29395;246;63004;-65
2022/04/12 00:59:54;;;;;;;0.50;0.50;;;;;;;7.18;60.81;96623.53;29395;202;63008;-58
2022/04/12 01:00:26;;;;;;;0.50;0.50;;;;;;;7.17;60.53;96623.81;29395;230;63005;-64
2022/04/12 01:00:57;;;;;;;0.50;0.50;;;;;;;7.15;60.59;96618.69;29395;219;63009;-59
2022/04/12 01:01:29;;;;;;;0.50;0.50;;;;;;;7.16;60.89;96627.59;29395;232;63005;-63
2022/04/12 01:02:06;;;;;;;0.50;0.50;;;;;;;7.17;60.84;96630.03;29394;229;64013;-65
2022/04/12 01:02:37;;;;;;;0.50;0.50;;;;;;;7.18;60.32;96617.34;29395;243;63012;-66
2022/04/12 01:03:09;;;;;;;0.50;0.50;;;;;;;7.21;60.16;96628.38;29395;237;63009;-64
2022/04/12 01:03:40;;;;;;;0.50;0.50;;;;;;;7.22;60.36;96619.22;29395;214;63005;-63
2022/04/12 01:04:11;;;;;;;0.50;0.50;;;;;;;7.23;60.35;96615.44;29395;223;63009;-63
2022/04/12 01:04:42;;;;;;;0.50;0.50;;;;;;;7.24;60.14;96619.75;29395;258;63008;-65
2022/04/12 01:05:14;;;;;;;0.50;0.50;;;;;;;7.26;59.85;96622.97;29395;203;63009;-63
2022/04/12 01:05:46;;;;;;;0.88;0.88;;;;;;;7.25;60.09;96621.34;29395;240;63004;-63
2022/04/12 01:06:18;;;;;;;0.60;0.60;;;;;;;7.25;60.03;96618.66;29394;216;64013;-64
2022/04/12 01:06:50;;;;;;;0.50;0.50;;;;;;;7.24;60.11;96625.13;29395;267;63004;-64
2022/04/12 01:07:25;;;;;;;0.50;0.50;;;;;;;7.26;59.89;96624.87;29394;310;64013;-64
2022/04/12 01:08:02;;;;;;;2.58;2.47;;;;;;;7.26;60.23;96620.28;29395;206;63005;-64
2022/04/12 01:08:34;;;;;;;0.50;0.50;;;;;;;7.28;59.93;96612.69;29395;211;63009;-66
2022/04/12 01:09:05;;;;;;;0.50;0.50;;;;;;;7.27;59.92;96613.78;29394;199;64009;-63
2022/04/12 01:09:36;;;;;;;0.60;0.60;;;;;;;7.28;59.87;96619.97;29395;259;63022;-58
2022/04/12 01:10:08;;;;;;;0.50;0.50;;;;;;;7.27;60.00;96619.19;29395;289;63005;-63
2022/04/12 01:10:43;;;;;;;0.60;0.60;;;;;;;7.26;60.04;96614.88;29395;219;63009;-65
2022/04/12 01:11:16;;;;;;;0.50;0.50;;;;;;;7.24;60.12;96617.03;29395;197;63005;-58
2022/04/12 01:11:48;;;;;;;0.50;0.50;;;;;;;7.25;59.97;96615.97;29395;219;63009;-64
2022/04/12 01:12:21;;;;;;;0.50;0.50;;;;;;;7.25;60.04;96618.66;29395;198;63004;-63
2022/04/12 01:12:53;;;;;;;0.50;0.50;;;;;;;7.26;59.85;96614.06;29395;214;63019;-63
2022/04/12 01:13:27;;;;;;;0.50;0.50;;;;;;;7.26;60.08;96614.06;29395;251;63004;-66
2022/04/12 01:14:04;;;;;;;0.60;0.60;;;;;;;7.26;59.98;96614.88;29394;226;64013;-66
2022/04/12 01:14:36;;;;;;;0.50;0.50;;;;;;;7.28;60.00;96612.69;29395;206;63004;-65
2022/04/12 01:15:15;;;;;;;0.50;0.50;;;;;;;7.28;59.73;96612.69;29395;250;63008;-63
2022/04/12 01:15:48;;;;;;;0.60;0.60;;;;;;;7.27;59.93;96616.50;29395;199;63005;-65
2022/04/12 01:16:19;;;;;;;0.50;0.50;;;;;;;7.26;59.75;96614.88;29395;211;63009;-65
2022/04/12 01:16:54;;;;;;;0.50;0.50;;;;;;;7.26;59.94;96609.47;29395;260;63005;-63
2022/04/12 01:17:25;;;;;;;0.50;0.50;;;;;;;7.25;59.96;96607.88;29395;219;63009;-58
2022/04/12 01:17:57;;;;;;;0.50;0.50;;;;;;;7.25;59.99;96607.88;29394;258;64009;-62
2022/04/12 01:18:28;;;;;;;0.60;0.60;;;;;;;7.25;59.96;96610.56;29395;203;63009;-58
2022/04/12 01:18:59;;;;;;;0.60;0.60;;;;;;;7.25;60.11;96613.25;29395;207;63008;-58
2022/04/12 01:19:31;;;;;;;0.60;0.60;;;;;;;7.25;60.03;96621.34;29395;224;63009;-58
2022/04/12 01:20:02;;;;;;;0.60;0.60;;;;;;;7.24;60.22;96610.84;29395;244;63004;-64
2022/04/12 01:20:33;;;;;;;0.50;0.50;;;;;;;7.24;60.08;96616.22;29395;203;63018;-63
2022/04/12 01:21:05;;;;;;;0.50;0.50;;;;;;;7.25;60.51;96607.06;29395;231;63004;-59
2022/04/12 01:21:54;;;;;;;0.50;0.50;;;;;;;7.25;60.44;96613.25;29395;252;63008;-58
2022/04/12 01:22:27;;;;;;;0.50;0.50;;;;;;;7.24;60.29;96611.66;29395;245;63004;-58
2022/04/12 01:23:13;;;;;;;0.60;0.60;;;;;;;7.25;60.30;96613.25;29394;304;64014;-59
2022/04/12 01:24:00;;;;;;;0.60;0.60;;;;;;;7.25;60.06;96613.25;29395;203;63005;-58
2022/04/12 01:24:33;;;;;;;0.60;0.60;;;;;;;7.25;59.94;96612.44;29395;248;63013;-60
2022/04/12 01:25:05;;;;;;;0.60;0.60;;;;;;;7.27;59.94;96605.69;29395;198;63005;-59
2022/04/12 01:25:40;;;;;;;0.50;0.50;;;;;;;7.28;59.83;96609.16;29395;238;63009;-59
2022/04/12 01:26:11;;;;;;;0.52;0.52;;;;;;;7.28;59.85;96606.47;29395;231;63005;-64
2022/04/12 01:26:43;;;;;;;0.50;0.50;;;;;;;7.27;59.49;96603.00;29395;247;63009;-58
2022/04/12 01:27:14;;;;;;;0.50;0.50;;;;;;;7.26;59.61;96604.06;29395;211;63004;-59
2022/04/12 01:27:45;;;;;;;0.60;0.60;;;;;;;7.27;59.57;96610.28;29395;203;63009;-60
2022/04/12 01:28:16;;;;;;;0.50;0.50;;;;;;;7.26;59.79;96604.06;29394;212;64009;-59
2022/04/12 01:28:47;;;;;;;0.50;0.50;;;;;;;7.25;59.60;96601.66;29395;209;63008;-59
2022/04/12 01:29:18;;;;;;;1.83;1.73;;;;;;;7.25;59.93;96602.47;29395;246;63004;-59
2022/04/12 01:29:52;;;;;;;0.50;0.50;;;;;;;7.25;59.51;96602.47;29395;219;63009;-63
2022/04/12 01:30:27;;;;;;;0.50;0.50;;;;;;;7.26;59.71;96604.06;29395;203;63005;-60
2022/04/12 01:30:59;;;;;;;0.60;0.60;;;;;;;7.26;59.37;96604.06;29395;202;63009;-59
2022/04/12 01:31:30;;;;;;;0.50;0.50;;;;;;;7.26;59.64;96601.37;29395;229;63005;-64
2022/04/12 01:32:07;;;;;;;0.50;0.50;;;;;;;7.26;59.65;96606.78;29395;197;63009;-59
2022/04/12 01:32:39;;;;;;;0.50;0.50;;;;;;;7.27;59.40;96603.00;29395;197;63005;-62
2022/04/12 01:33:10;;;;;;;0.60;0.60;;;;;;;7.29;59.49;96602.69;29395;199;63009;-58
2022/04/12 01:33:41;;;;;;;0.55;0.55;;;;;;;7.28;59.32;96601.87;29394;203;64009;-58
2022/04/12 01:34:12;;;;;;;0.50;0.50;;;;;;;7.27;59.66;96600.28;29395;230;63009;-58
2022/04/12 01:34:44;;;;;;;0.60;0.60;;;;;;;7.26;59.44;96606.78;29395;295;63004;-59
2022/04/12 01:35:15;;;;;;;0.50;0.50;;;;;;;7.24;59.43;96595.47;29395;291;63022;-63
2022/04/12 01:35:46;;;;;;;0.50;0.50;;;;;;;7.25;59.76;96602.47;29395;204;63004;-59
2022/04/12 01:36:18;;;;;;;5.50;5.28;;;;;;;7.25;59.44;96607.88;29395;245;63009;-60
2022/04/12 01:36:50;;;;;;;0.50;0.50;;;;;;;7.26;59.83;96603.28;29395;247;63004;-59
2022/04/12 01:37:21;;;;;;;0.50;0.50;;;;;;;7.25;59.55;96602.47;29395;208;63009;-63
2022/04/12 01:37:54;;;;;;;0.60;0.60;;;;;;;7.26;59.51;96600.56;29395;221;63005;-59
2022/04/12 01:38:25;;;;;;;0.50;0.50;;;;;;;7.25;59.58;96610.56;29395;203;63009;-58
2022/04/12 01:38:56;;;;;;;0.50;0.50;;;;;;;7.24;59.72;96608.13;29394;219;64009;-58
2022/04/12 01:39:28;;;;;;;0.50;0.50;;;;;;;7.22;59.76;96604.91;29394;227;64013;-59
2022/04/12 01:40:00;;;;;;;0.50;0.50;;;;;;;7.22;59.99;96613.81;29395;239;63005;-64
2022/04/12 01:40:31;;;;;;;0.60;0.60;;;;;;;7.21;59.66;96612.19;29395;253;63009;-60
2022/04/12 01:41:02;;;;;;;0.57;0.57;;;;;;;7.22;59.90;96608.41;29395;237;63005;-58
2022/04/12 01:41:33;;;;;;;0.50;0.50;;;;;;;7.21;59.71;96617.59;29395;239;63009;-59
2022/04/12 01:42:06;;;;;;;0.50;0.50;;;;;;;7.18;59.86;96612.75;29395;202;63004;-61
2022/04/12 01:42:38;;;;;;;0.60;0.60;;;;;;;7.18;60.06;96618.16;29395;209;63009;-58
2022/04/12 01:43:14;;;;;;;0.50;0.50;;;;;;;7.16;60.09;96614.91;29395;220;63004;-63
2022/04/12 01:43:45;;;;;;;0.50;0.50;;;;;;;7.15;60.07;96621.41;29395;226;63009;-59
2022/04/12 01:44:19;;;;;;;0.60;0.60;;;;;;;7.13;60.07;96612.78;29395;196;63004;-62
2022/04/12 01:44:54;;;;;;;0.50;0.50;;;;;;;7.14;60.09;96618.97;29394;302;64014;-64
2022/04/12 01:45:25;;;;;;;0.57;0.57;;;;;;;7.14;60.27;96618.97;29395;227;63010;-58
2022/04/12 01:45:56;;;;;;;0.50;0.50;;;;;;;7.13;60.12;96614.66;29395;229;63009;-58
2022/04/12 01:46:29;;;;;;;0.50;0.50;;;;;;;7.14;60.35;96616.28;29394;210;64009;-59
2022/04/12 01:47:00;;;;;;;0.60;0.60;;;;;;;7.13;60.17;96612.78;29395;219;63009;-59
2022/04/12 01:47:31;;;;;;;0.50;0.50;;;;;;;7.13;60.48;96614.66;29395;200;63005;-58
2022/04/12 01:48:03;;;;;;;0.65;0.65;;;;;;;7.11;60.32;96614.94;29395;196;63009;-59
2022/04/12 01:48:35;;;;;;;0.50;0.50;;;;;;;7.11;60.44;96612.25;29395;196;63005;-63
2022/04/12 01:49:07;;;;;;;0.50;0.50;;;;;;;7.12;60.29;96618.44;29395;223;63009;-59
2022/04/12 01:49:38;;;;;;;0.60;0.60;;;;;;;7.11;60.63;96612.25;29395;219;63004;-63
2022/04/12 01:50:13;;;;;;;0.50;0.50;;;;;;;7.13;60.27;96609.28;29395;242;63009;-61
2022/04/12 01:50:44;;;;;;;0.50;0.50;;;;;;;7.15;60.35;96616.00;29394;227;64009;-64
2022/04/12 01:51:16;;;;;;;0.60;0.60;;;;;;;7.16;60.21;96614.09;29394;250;64013;-59
2022/04/12 01:51:48;;;;;;;0.50;0.50;;;;;;;7.15;60.17;96612.50;29395;218;63004;-58
2022/04/12 01:52:19;;;;;;;0.55;0.55;;;;;;;7.14;60.30;96606.28;29395;193;63009;-59
2022/04/12 01:52:50;;;;;;;0.60;0.60;;;;;;;7.15;60.35;96604.41;29395;232;63005;-59
2022/04/12 01:53:21;;;;;;;0.50;0.50;;;;;;;7.15;60.23;96607.09;29395;228;63009;-59
2022/04/12 01:53:52;;;;;;;0.60;0.60;;;;;;;7.14;60.14;96605.50;29395;270;63005;-57
2022/04/12 01:54:23;;;;;;;0.50;0.50;;;;;;;7.14;60.28;96600.91;29395;223;63009;-58
2022/04/12 01:54:54;;;;;;;0.50;0.50;;;;;;;7.13;60.07;96604.69;29395;197;63005;-58
2022/04/12 01:55:25;;;;;;;0.60;0.60;;;;;;;7.14;60.06;96606.28;29395;250;63009;-58
2022/04/12 01:55:57;;;;;;;0.60;0.60;;;;;;;7.16;60.24;96609.53;29395;211;63012;-58
2022/04/12 01:56:31;;;;;;;0.50;0.50;;;;;;;7.16;60.35;96606.81;29394;215;64011;-59
2022/04/12 01:57:03;;;;;;;0.50;0.50;;;;;;;7.15;60.25;96599.00;29395;215;63004;-59
2022/04/12 01:57:34;;;;;;;0.50;0.50;;;;;;;7.14;60.07;96608.19;29395;208;63009;-58
2022/04/12 01:58:06;;;;;;;0.50;0.50;;;;;;;7.14;60.29;96600.91;29395;227;63004;-58
2022/04/12 01:58:38;;;;;;;0.50;0.50;;;;;;;7.14;60.01;96598.19;29395;214;63009;-58
2022/04/12 01:59:09;;;;;;;0.50;0.50;;;;;;;7.13;59.98;96607.38;29395;240;63004;-65
2022/04/12 01:59:42;;;;;;;0.50;0.50;;;;;;;7.14;60.06;96600.09;29395;218;63008;-61
2022/04/12 02:00:14;;;;;;;0.50;0.50;;;;;;;7.13;60.11;96599.28;29395;224;63005;-64
2022/04/12 02:00:45;;;;;;;0.50;0.50;;;;;;;7.12;59.94;96599.56;29395;245;63009;-59
2022/04/12 02:01:16;;;;;;;0.60;0.60;;;;;;;7.09;60.15;96606.31;29395;210;63005;-64
2022/04/12 02:01:47;;;;;;;0.50;0.50;;;;;;;7.06;60.24;96606.88;29394;213;64013;-63
2022/04/12 02:02:18;;;;;;;0.50;0.50;;;;;;;7.04;60.53;96606.34;29395;301;63005;-60
2022/04/12 02:02:50;;;;;;;0.55;0.55;;;;;;;7.02;60.33;96605.81;29395;199;63009;-63
2022/04/12 02:03:24;;;;;;;0.60;0.60;;;;;;;6.99;60.80;96604.47;29395;234;63005;-64
2022/04/12 02:03:56;;;;;;;0.60;0.60;;;;;;;7.00;60.50;96607.97;29395;199;63009;-64
2022/04/12 02:04:28;;;;;;;0.60;0.60;;;;;;;6.95;60.72;96602.59;29395;222;63004;-58
2022/04/12 02:04:59;;;;;;;0.60;0.60;;;;;;;6.97;60.51;96603.13;29395;289;63009;-63
2022/04/12 02:05:31;;;;;;;0.50;0.50;;;;;;;6.97;60.91;96606.63;29395;203;63007;-57
2022/04/12 02:06:03;;;;;;;0.60;0.60;;;;;;;6.98;60.63;96612.81;29395;307;63009;-57
2022/04/12 02:06:34;;;;;;;0.60;0.60;;;;;;;6.97;61.11;96606.63;29395;203;63004;-58
2022/04/12 02:07:06;;;;;;;0.50;0.50;;;;;;;6.97;61.08;96608.53;29394;223;64013;-63
2022/04/12 02:07:38;;;;;;;0.50;0.50;;;;;;;6.98;60.80;96610.13;29395;225;63005;-63
2022/04/12 02:08:09;;;;;;;0.50;0.50;;;;;;;7.00;60.81;96607.97;29395;249;63009;-65
2022/04/12 02:08:41;;;;;;;0.50;0.50;;;;;;;7.00;60.68;96605.28;29395;217;63005;-59
2022/04/12 02:09:12;;;;;;;0.50;0.50;;;;;;;7.00;60.70;96605.28;29395;345;63009;-59
2022/04/12 02:09:43;;;;;;;0.60;0.60;;;;;;;6.99;60.79;96606.34;29395;209;63005;-60
2022/04/12 02:10:15;;;;;;;0.60;0.60;;;;;;;7.02;60.61;96608.50;29395;236;63019;-59
2022/04/12 02:10:47;;;;;;;0.50;0.50;;;;;;;7.02;60.81;96612.00;29395;215;63005;-59
2022/04/12 02:11:18;;;;;;;0.60;0.60;;;;;;;7.02;60.82;96609.31;29395;202;63009;-64
2022/04/12 02:11:49;;;;;;;0.60;0.60;;;;;;;7.01;60.73;96610.38;29395;212;63008;-57
2022/04/12 02:12:20;;;;;;;0.50;0.50;;;;;;;6.97;60.47;96605.81;29394;346;64013;-63
2022/04/12 02:12:51;;;;;;;0.60;0.60;;;;;;;6.99;60.46;96607.16;29395;218;63004;-63
2022/04/12 02:13:22;;;;;;;0.60;0.60;;;;;;;7.05;60.56;96602.56;29395;214;63009;-60
2022/04/12 02:13:56;;;;;;;0.60;0.60;;;;;;;7.07;60.34;96605.78;29395;206;63004;-58
2022/04/12 02:14:28;;;;;;;0.60;0.60;;;;;;;7.07;60.52;96603.09;29395;207;63008;-64
2022/04/12 02:15:00;;;;;;;0.60;0.60;;;;;;;7.08;60.40;96602.00;29395;232;63006;-58
2022/04/12 02:15:33;;;;;;;0.60;0.60;;;;;;;7.07;60.54;96605.78;29395;203;63025;-58
2022/04/12 02:16:05;;;;;;;0.60;0.60;;;;;;;7.06;60.50;96602.28;29395;246;63005;-60
2022/04/12 02:16:36;;;;;;;0.50;0.50;;;;;;;7.07;60.37;96603.09;29395;216;63009;-64
2022/04/12 02:17:07;;;;;;;0.50;0.50;;;;;;;7.06;60.15;96599.59;29395;206;63000;-59
2022/04/12 02:17:39;;;;;;;0.50;0.50;;;;;;;7.07;60.17;96603.09;29394;214;64013;-60
2022/04/12 02:18:10;;;;;;;0.60;0.60;;;;;;;7.07;60.38;96595.00;29395;258;63005;-57
2022/04/12 02:18:41;;;;;;;1.05;1.05;;;;;;;7.07;60.50;96601.19;29395;222;63009;-58
2022/04/12 02:19:12;;;;;;;0.60;0.60;;;;;;;7.07;60.06;96605.78;29395;206;63004;-59
2022/04/12 02:19:44;;;;;;;0.50;0.50;;;;;;;7.06;60.45;96596.06;29395;204;63009;-58
2022/04/12 02:20:18;;;;;;;0.57;0.57;;;;;;;7.04;60.45;96600.94;29395;202;63004;-58
2022/04/12 02:20:49;;;;;;;0.50;0.50;;;;;;;7.04;60.63;96598.25;29395;204;63009;-58
2022/04/12 02:21:20;;;;;;;0.50;0.50;;;;;;;7.02;60.32;96595.00;29395;210;63004;-58
2022/04/12 02:21:51;;;;;;;0.50;0.50;;;;;;;7.02;60.33;96600.41;29394;219;64013;-58
2022/04/12 02:22:24;;;;;;;0.52;0.52;;;;;;;7.00;60.40;96592.59;29395;278;63004;-58
2022/04/12 02:22:55;;;;;;;0.50;0.50;;;;;;;6.99;60.63;96596.38;29395;209;63009;-66
2022/04/12 02:23:26;;;;;;;0.60;0.60;;;;;;;6.98;60.50;96596.66;29395;208;63005;-65
2022/04/12 02:23:57;;;;;;;0.60;0.60;;;;;;;6.98;60.57;96592.06;29395;207;63009;-59
2022/04/12 02:24:28;;;;;;;0.50;0.50;;;;;;;6.97;60.70;96600.44;29395;214;63005;-64
2022/04/12 02:24:59;;;;;;;0.60;0.60;;;;;;;6.97;60.64;96595.03;29395;210;63009;-58
2022/04/12 02:25:31;;;;;;;0.50;0.50;;;;;;;6.98;60.77;96591.25;29395;257;63005;-59
2022/04/12 02:26:02;;;;;;;0.60;0.60;;;;;;;6.97;60.39;96595.84;29395;212;63009;-59
2022/04/12 02:26:34;;;;;;;0.60;0.60;;;;;;;6.96;60.68;96593.41;29395;216;63004;-62
2022/04/12 02:27:06;;;;;;;0.50;0.50;;;;;;;6.96;60.85;96591.53;29394;283;64013;-60
2022/04/12 02:27:37;;;;;;;0.50;0.50;;;;;;;6.95;60.85;96589.91;29395;206;63004;-59
2022/04/12 02:28:12;;;;;;;0.50;0.50;;;;;;;6.96;60.62;96596.13;29395;203;63009;-65
2022/04/12 02:28:43;;;;;;;0.60;0.60;;;;;;;6.96;60.67;96593.41;29395;265;63004;-58
2022/04/12 02:29:15;;;;;;;0.50;0.50;;;;;;;6.95;60.65;96592.59;29395;306;63008;-57
2022/04/12 02:29:46;;;;;;;0.50;0.50;;;;;;;6.93;60.75;96588.59;29394;216;64020;-59
2022/04/12 02:30:17;;;;;;;0.50;0.50;;;;;;;6.93;60.88;96600.16;29395;239;63009;-63
2022/04/12 02:30:50;;;;;;;0.50;0.50;;;;;;;6.92;60.91;96592.38;29395;259;63005;-61
2022/04/12 02:31:21;;;;;;;0.60;0.60;;;;;;;6.92;60.73;96589.69;29395;207;63009;-64
2022/04/12 02:31:52;;;;;;;0.60;0.60;;;;;;;6.92;60.81;96592.38;29395;202;63005;-58
2022/04/12 02:32:23;;;;;;;0.50;0.50;;;;;;;6.93;60.76;96594.00;29395;264;63024;-63
2022/04/12 02:32:55;;;;;;;50.47;47.45;;;;;;;6.90;61.01;96589.97;29385;197;65005;-60
2022/04/12 02:33:26;;;;;;;0.50;0.50;;;;;;;6.91;60.97;96598.84;29395;244;63009;-64
2022/04/12 02:33:57;;;;;;;0.50;0.50;;;;;;;6.89;61.08;96592.94;29395;252;63012;-58
2022/04/12 02:34:28;;;;;;;0.60;0.60;;;;;;;6.88;60.89;96594.81;29395;236;63009;-58
2022/04/12 02:35:00;;;;;;;0.60;0.60;;;;;;;6.91;61.00;96588.06;29394;225;64009;-59
2022/04/12 02:35:32;;;;;;;0.50;0.50;;;;;;;6.93;61.04;96591.31;29395;255;63009;-63
2022/04/12 02:36:04;;;;;;;0.50;0.50;;;;;;;6.93;60.78;96596.69;29395;231;63004;-58
2022/04/12 02:36:39;;;;;;;0.50;0.50;;;;;;;6.94;60.76;96591.00;29395;221;63008;-59
2022/04/12 02:37:10;;;;;;;0.50;0.50;;;;;;;6.93;60.84;96588.59;29395;198;63005;-62
2022/04/12 02:37:42;;;;;;;0.50;0.50;;;;;;;6.92;60.94;96593.19;29394;239;64014;-63